createdAt,value
2019-04-22T00:01:31.235Z,18.80
2019-04-22T00:04:04.836Z,18.60
2019-04-22T00:06:49.728Z,18.60
2019-04-22T00:09:27.073Z,18.50
2019-04-22T00:12:00.371Z,18.60
2019-04-22T00:14:26.786Z,18.70
2019-04-22T00:17:00.744Z,18.50
2019-04-22T00:19:32.008Z,18.40
2019-04-22T00:22:02.846Z,18.30
2019-04-22T00:24:24.506Z,18.20
2019-04-22T00:26:59.568Z,18.20
2019-04-22T00:29:49.378Z,18.20
2019-04-22T00:32:05.501Z,18.00
2019-04-22T00:34:35.929Z,18.50
2019-04-22T00:37:10.938Z,18.40
2019-04-22T00:39:41.132Z,18.50
2019-04-22T00:42:07.769Z,18.50
2019-04-22T00:47:21.440Z,18.20
2019-04-22T00:52:17.711Z,18.20
2019-04-22T00:54:49.584Z,18.40
2019-04-22T00:57:15.376Z,18.20
2019-04-22T00:59:47.942Z,18.30
2019-04-22T01:02:22.897Z,18.40
2019-04-22T01:04:49.457Z,18.50
2019-04-22T01:07:17.675Z,18.50
2019-04-22T01:09:53.631Z,18.50
2019-04-22T01:12:24.191Z,18.30
2019-04-22T01:14:49.600Z,18.40
2019-04-22T01:17:22.476Z,18.10
2019-04-22T01:20:01.100Z,18.30
2019-04-22T01:22:17.631Z,18.40
2019-04-22T01:24:46.650Z,18.20
2019-04-22T01:27:13.230Z,18.10
2019-04-22T01:29:41.214Z,18.20
2019-04-22T01:32:00.364Z,18.00
2019-04-22T01:34:46.061Z,18.00
2019-04-22T01:37:20.220Z,18.30
2019-04-22T01:39:59.020Z,17.90
2019-04-22T01:42:29.870Z,18.40
2019-04-22T01:44:56.765Z,18.30
2019-04-22T01:47:32.805Z,18.40
2019-04-22T01:50:04.705Z,18.30
2019-04-22T01:52:29.652Z,18.30
2019-04-22T01:55:04.301Z,18.50
2019-04-22T01:57:32.027Z,18.30
2019-04-22T01:59:58.721Z,18.10
2019-04-22T02:02:40.020Z,18.10
2019-04-22T02:05:10.624Z,18.40
2019-04-22T02:07:34.049Z,18.10
2019-04-22T02:10:02.272Z,18.40
2019-04-22T02:12:33.657Z,18.30
2019-04-22T02:15:07.902Z,18.40
2019-04-22T02:17:37.224Z,18.20
2019-04-22T02:23:00.527Z,17.80
2019-04-22T02:25:18.628Z,17.80
2019-04-22T02:27:47.146Z,17.60
2019-04-22T02:30:13.804Z,17.70
2019-04-22T02:33:22.368Z,17.60
2019-04-22T02:35:36.631Z,17.90
2019-04-22T02:37:55.029Z,17.90
2019-04-22T02:40:38.114Z,18.00
2019-04-22T02:43:08.615Z,18.00
2019-04-22T02:45:26.633Z,18.00
2019-04-22T02:47:59.129Z,17.90
2019-04-22T02:50:16.083Z,17.80
2019-04-22T02:52:50.435Z,18.00
2019-04-22T02:55:23.512Z,17.80
2019-04-22T02:57:55.073Z,17.90
2019-04-22T03:00:35.794Z,17.70
2019-04-22T03:03:10.706Z,17.60
2019-04-22T03:05:37.073Z,17.70
2019-04-22T03:08:09.915Z,17.50
2019-04-22T03:10:37.948Z,17.60
2019-04-22T03:13:00.440Z,17.60
2019-04-22T03:15:30.521Z,17.80
2019-04-22T03:18:19.509Z,17.50
2019-04-22T03:20:33.514Z,17.60
2019-04-22T03:23:17.278Z,17.40
2019-04-22T03:28:06.483Z,17.30
2019-04-22T03:38:37.911Z,17.40
2019-04-22T03:45:30.209Z,17.30
2019-04-22T03:50:57.595Z,17.20
2019-04-22T03:58:32.369Z,17.00
2019-04-22T04:03:11.731Z,17.10
2019-04-22T04:08:22.318Z,16.90
2019-04-22T04:15:38.409Z,16.70
2019-04-22T04:18:39.569Z,16.80
2019-04-22T04:26:04.381Z,17.00
2019-04-22T04:30:45.987Z,17.00
2019-04-22T04:33:24.928Z,16.80
2019-04-22T04:36:01.944Z,16.80
2019-04-22T04:38:21.132Z,16.80
2019-04-22T04:40:51.267Z,16.90
2019-04-22T04:43:33.381Z,16.80
2019-04-22T04:45:55.216Z,16.90
2019-04-22T04:48:34.453Z,16.80
2019-04-22T04:51:11.841Z,16.90
2019-04-22T04:55:53.627Z,16.70
2019-04-22T04:58:46.599Z,16.70
2019-04-22T05:01:07.542Z,16.60
2019-04-22T05:06:10.651Z,16.40
2019-04-22T05:08:54.424Z,16.50
2019-04-22T05:11:05.655Z,16.50
2019-04-22T05:13:44.858Z,16.60
2019-04-22T05:16:17.339Z,16.60
2019-04-22T05:18:37.710Z,16.80
2019-04-22T05:21:14.550Z,17.00
2019-04-22T05:23:38.822Z,17.10
2019-04-22T05:26:05.866Z,17.20
2019-04-22T05:28:33.458Z,17.00
2019-04-22T05:31:09.761Z,17.00
2019-04-22T05:33:34.871Z,17.00
2019-04-22T05:36:07.458Z,16.80
2019-04-22T05:38:39.987Z,16.80
2019-04-22T05:41:04.309Z,16.60
2019-04-22T05:43:38.623Z,16.90
2019-04-22T05:46:05.740Z,16.90
2019-04-22T05:48:38.084Z,17.00
2019-04-22T05:51:29.419Z,17.10
2019-04-22T05:53:40.476Z,17.20
2019-04-22T05:56:12.292Z,17.20
2019-04-22T05:58:46.407Z,17.50
2019-04-22T06:03:49.347Z,17.70
2019-04-22T06:06:16.335Z,17.50
2019-04-22T06:08:48.817Z,17.70
2019-04-22T06:11:24.453Z,17.80
2019-04-22T06:13:38.948Z,17.80
2019-04-22T06:16:18.282Z,17.80
2019-04-22T06:19:01.812Z,17.60
2019-04-22T06:21:27.422Z,17.90
2019-04-22T06:23:54.484Z,17.90
2019-04-22T06:26:35.767Z,17.70
2019-04-22T06:28:54.659Z,17.70
2019-04-22T06:31:38.664Z,17.90
2019-04-22T06:36:30.894Z,17.90
2019-04-22T06:38:51.368Z,18.00
2019-04-22T06:41:27.371Z,17.90
2019-04-22T06:43:58.379Z,18.20
2019-04-22T06:46:29.887Z,18.30
2019-04-22T06:49:03.619Z,18.30
2019-04-22T06:51:32.918Z,18.40
2019-04-22T06:54:01.772Z,18.20
2019-04-22T06:56:27.810Z,18.50
2019-04-22T06:58:58.001Z,18.40
2019-04-22T07:01:40.443Z,18.60
2019-04-22T07:06:35.753Z,18.70
2019-04-22T07:09:25.196Z,19.00
2019-04-22T07:11:30.731Z,18.90
2019-04-22T07:16:37.861Z,19.40
2019-04-22T07:19:20.538Z,19.60
2019-04-22T07:21:37.313Z,19.70
2019-04-22T07:24:21.183Z,19.80
2019-04-22T07:26:36.223Z,19.90
2019-04-22T07:29:10.429Z,20.00
2019-04-22T07:31:34.415Z,20.10
2019-04-22T07:34:15.989Z,20.10
2019-04-22T07:39:10.567Z,20.20
2019-04-22T07:41:38.422Z,20.30
2019-04-22T07:44:16.612Z,20.40
2019-04-22T07:46:41.941Z,20.50
2019-04-22T07:49:14.749Z,20.60
2019-04-22T07:54:16.285Z,20.80
2019-04-22T07:56:43.845Z,20.90
2019-04-22T07:59:15.293Z,21.00
2019-04-22T08:01:42.353Z,21.10
2019-04-22T08:04:23.735Z,21.10
2019-04-22T08:09:24.572Z,21.20
2019-04-22T08:14:14.408Z,21.40
2019-04-22T08:16:51.846Z,21.50
2019-04-22T08:19:20.389Z,21.60
2019-04-22T08:21:47.360Z,21.70
2019-04-22T08:24:14.702Z,21.80
2019-04-22T08:29:19.120Z,21.90
2019-04-22T08:31:59.209Z,21.90
2019-04-22T08:34:20.827Z,21.90
2019-04-22T08:37:16.310Z,22.00
2019-04-22T08:39:21.757Z,22.00
2019-04-22T08:41:52.039Z,22.10
2019-04-22T08:44:40.240Z,22.10
2019-04-22T08:46:57.721Z,22.20
2019-04-22T08:49:22.765Z,22.30
2019-04-22T08:52:16.310Z,22.40
2019-04-22T08:54:43.732Z,22.50
2019-04-22T08:57:18.267Z,22.60
2019-04-22T08:59:45.708Z,22.70
2019-04-22T09:02:20.205Z,22.70
2019-04-22T09:04:45.447Z,22.80
2019-04-22T09:09:55.308Z,22.80
2019-04-22T09:12:23.728Z,22.90
2019-04-22T09:14:45.614Z,23.00
2019-04-22T09:17:24.513Z,23.00
2019-04-22T09:19:48.139Z,23.00
2019-04-22T09:22:20.108Z,23.10
2019-04-22T09:24:48.912Z,23.10
2019-04-22T09:27:26.560Z,23.10
2019-04-22T09:29:50.351Z,23.20
2019-04-22T09:32:31.758Z,23.30
2019-04-22T09:34:51.240Z,23.40
2019-04-22T09:37:26.862Z,23.50
2019-04-22T09:40:02.817Z,23.60
2019-04-22T09:42:27.360Z,23.70
2019-04-22T09:47:30.733Z,23.80
2019-04-22T09:52:20.669Z,24.00
2019-04-22T09:55:00.168Z,24.10
2019-04-22T09:57:29.522Z,24.20
2019-04-22T10:05:00.522Z,24.30
2019-04-22T10:07:27.226Z,24.40
2019-04-22T10:10:03.414Z,24.40
2019-04-22T10:12:31.584Z,24.50
2019-04-22T10:14:55.818Z,24.50
2019-04-22T10:17:26.094Z,24.50
2019-04-22T10:20:01.110Z,24.40
2019-04-22T10:22:35.500Z,24.40
2019-04-22T10:25:01.885Z,24.40
2019-04-22T10:27:26.181Z,24.40
2019-04-22T10:29:59.798Z,24.50
2019-04-22T10:32:31.936Z,24.50
2019-04-22T10:35:02.423Z,24.60
2019-04-22T10:37:25.648Z,24.60
2019-04-22T10:39:59.279Z,24.70
2019-04-22T10:42:25.234Z,24.70
2019-04-22T10:44:55.464Z,24.70
2019-04-22T10:47:25.730Z,24.80
2019-04-22T10:49:54.630Z,24.80
2019-04-22T10:52:23.721Z,24.80
2019-04-22T10:54:53.595Z,25.00
2019-04-22T10:57:22.446Z,25.00
2019-04-22T10:59:52.312Z,25.00
2019-04-22T11:02:21.574Z,25.10
2019-04-22T11:04:50.452Z,25.10
2019-04-22T11:07:24.633Z,25.10
2019-04-22T11:09:58.974Z,25.10
2019-04-22T11:12:23.410Z,25.20
2019-04-22T11:14:51.786Z,25.30
2019-04-22T11:17:21.771Z,25.30
2019-04-22T11:19:51.241Z,25.30
2019-04-22T11:22:25.485Z,25.30
2019-04-22T11:24:50.807Z,25.30
2019-04-22T11:27:21.192Z,25.40
2019-04-22T11:29:50.944Z,25.50
2019-04-22T11:32:20.243Z,25.50
2019-04-22T11:34:49.517Z,25.50
2019-04-22T11:37:18.550Z,25.50
2019-04-22T11:40:00.269Z,25.60
2019-04-22T11:42:18.719Z,25.60
2019-04-22T11:44:47.633Z,25.60
2019-04-22T11:47:17.171Z,25.60
2019-04-22T11:49:46.127Z,25.60
2019-04-22T11:52:16.754Z,25.80
2019-04-22T11:54:46.702Z,25.80
2019-04-22T11:57:16.994Z,25.80
2019-04-22T11:59:47.004Z,25.80
2019-04-22T12:02:18.107Z,25.90
2019-04-22T12:04:48.116Z,25.80
2019-04-22T12:07:17.306Z,25.70
2019-04-22T12:09:46.034Z,25.70
2019-04-22T12:12:15.971Z,25.80
2019-04-22T12:14:45.870Z,25.70
2019-04-22T12:17:15.993Z,25.70
2019-04-22T12:19:46.364Z,25.70
2019-04-22T12:22:15.382Z,25.70
2019-04-22T12:24:44.242Z,25.70
2019-04-22T12:27:14.298Z,25.80
2019-04-22T12:29:44.783Z,25.80
2019-04-22T12:32:13.748Z,25.70
2019-04-22T12:34:43.679Z,25.70
2019-04-22T12:37:17.410Z,25.60
2019-04-22T12:39:43.538Z,25.70
2019-04-22T12:42:13.181Z,25.70
2019-04-22T12:44:43.807Z,25.80
2019-04-22T12:47:13.028Z,25.70
2019-04-22T12:49:42.523Z,25.70
2019-04-22T12:52:23.438Z,25.70
2019-04-22T12:54:44.624Z,25.70
2019-04-22T12:57:14.704Z,25.80
2019-04-22T12:59:43.821Z,25.80
2019-04-22T13:02:13.446Z,25.80
2019-04-22T13:04:42.211Z,25.80
2019-04-22T13:07:11.638Z,25.80
2019-04-22T13:09:41.262Z,25.80
2019-04-22T13:12:11.055Z,25.80
2019-04-22T13:14:41.021Z,25.90
2019-04-22T13:17:10.487Z,25.90
2019-04-22T13:19:40.421Z,25.80
2019-04-22T13:22:09.408Z,25.80
2019-04-22T13:24:39.609Z,25.80
2019-04-22T13:27:08.911Z,25.90
2019-04-22T13:29:39.029Z,25.80
2019-04-22T13:32:08.968Z,25.80
2019-04-22T13:34:45.229Z,25.90
2019-04-22T13:37:08.482Z,25.90
2019-04-22T13:39:37.224Z,26.00
2019-04-22T13:42:11.474Z,26.00
2019-04-22T13:44:37.722Z,26.10
2019-04-22T13:47:19.729Z,26.00
2019-04-22T13:50:06.062Z,26.00
2019-04-22T13:55:01.759Z,26.10
2019-04-22T13:57:24.866Z,26.10
2019-04-22T13:59:44.701Z,26.10
2019-04-22T14:02:26.807Z,26.20
2019-04-22T14:04:56.740Z,26.30
2019-04-22T14:07:25.722Z,26.30
2019-04-22T14:09:55.992Z,26.30
2019-04-22T14:12:24.759Z,26.30
2019-04-22T14:14:54.459Z,26.30
2019-04-22T14:17:25.001Z,26.30
2019-04-22T14:19:55.025Z,26.30
2019-04-22T14:22:23.928Z,26.30
2019-04-22T14:24:52.592Z,26.20
2019-04-22T14:27:30.702Z,26.20
2019-04-22T14:29:51.704Z,26.20
2019-04-22T14:32:27.021Z,26.10
2019-04-22T14:34:51.346Z,26.10
2019-04-22T14:37:20.353Z,26.10
2019-04-22T14:39:49.342Z,26.20
2019-04-22T14:42:36.105Z,26.20
2019-04-22T14:45:22.077Z,26.10
2019-04-22T14:47:49.534Z,26.10
2019-04-22T14:50:14.055Z,26.10
2019-04-22T14:52:49.145Z,26.10
2019-04-22T14:55:03.877Z,26.30
2019-04-22T14:57:27.670Z,26.10
2019-04-22T14:59:55.778Z,26.10
2019-04-22T15:02:25.577Z,26.00
2019-04-22T15:04:54.559Z,26.00
2019-04-22T15:07:23.366Z,26.00
2019-04-22T15:09:52.298Z,26.10
2019-04-22T15:12:31.003Z,26.10
2019-04-22T15:14:53.406Z,26.10
2019-04-22T15:17:27.087Z,26.10
2019-04-22T15:20:01.496Z,26.10
2019-04-22T15:22:30.825Z,26.10
2019-04-22T15:25:19.122Z,26.10
2019-04-22T15:27:47.887Z,26.10
2019-04-22T15:30:17.206Z,26.10
2019-04-22T15:32:47.403Z,26.10
2019-04-22T15:35:17.517Z,26.10
2019-04-22T15:37:46.408Z,26.20
2019-04-22T15:40:16.564Z,26.20
2019-04-22T15:42:46.966Z,26.30
2019-04-22T15:45:16.870Z,26.30
2019-04-22T15:47:48.135Z,26.20
2019-04-22T15:50:19.007Z,26.10
2019-04-22T15:52:51.600Z,26.00
2019-04-22T15:55:18.725Z,26.00
2019-04-22T15:57:47.957Z,26.00
2019-04-22T16:00:29.425Z,26.10
2019-04-22T16:02:47.821Z,26.00
2019-04-22T16:05:17.102Z,25.90
2019-04-22T16:07:46.040Z,25.90
2019-04-22T16:10:15.784Z,26.00
2019-04-22T16:12:56.256Z,26.10
2019-04-22T16:15:16.198Z,26.00
2019-04-22T16:17:46.603Z,26.00
2019-04-22T16:20:17.211Z,25.80
2019-04-22T16:23:05.815Z,25.70
2019-04-22T16:25:55.363Z,25.60
2019-04-22T16:28:25.322Z,25.70
2019-04-22T16:30:55.341Z,25.70
2019-04-22T16:33:25.554Z,25.70
2019-04-22T16:35:55.080Z,25.70
2019-04-22T16:38:24.768Z,25.80
2019-04-22T16:40:54.732Z,25.70
2019-04-22T16:43:24.687Z,25.60
2019-04-22T16:45:53.858Z,25.70
2019-04-22T16:48:22.988Z,25.80
2019-04-22T16:50:52.812Z,25.70
2019-04-22T16:53:23.202Z,25.70
2019-04-22T16:55:52.947Z,25.70
2019-04-22T16:58:23.174Z,25.80
2019-04-22T17:00:52.483Z,25.70
2019-04-22T17:03:40.553Z,25.70
2019-04-22T17:06:17.405Z,25.60
2019-04-22T17:08:46.705Z,25.50
2019-04-22T17:11:16.020Z,25.30
2019-04-22T17:13:46.099Z,25.20
2019-04-22T17:16:16.008Z,25.10
2019-04-22T17:18:45.571Z,25.00
2019-04-22T17:21:15.560Z,25.10
2019-04-22T17:23:45.572Z,25.10
2019-04-22T17:26:14.805Z,25.10
2019-04-22T17:28:43.945Z,25.10
2019-04-22T17:31:13.118Z,25.10
2019-04-22T17:33:41.930Z,25.10
2019-04-22T17:36:12.016Z,25.10
2019-04-22T17:38:52.008Z,25.10
2019-04-22T17:41:24.794Z,25.10
2019-04-22T17:44:06.891Z,25.00
2019-04-22T17:46:41.990Z,25.10
2019-04-22T17:49:41.860Z,25.10
2019-04-22T17:52:24.642Z,25.10
2019-04-22T17:54:50.145Z,25.10
2019-04-22T17:57:22.474Z,25.00
2019-04-22T17:59:50.459Z,24.90
2019-04-22T18:02:22.137Z,24.80
2019-04-22T18:04:39.457Z,24.80
2019-04-22T18:07:45.793Z,24.60
2019-04-22T18:10:24.241Z,24.60
2019-04-22T18:12:37.073Z,24.60
2019-04-22T18:15:04.359Z,24.50
2019-04-22T18:17:35.573Z,24.50
2019-04-22T18:19:59.484Z,24.40
2019-04-22T18:22:21.936Z,24.30
2019-04-22T18:25:12.992Z,24.20
2019-04-22T18:27:55.159Z,24.20
2019-04-22T18:30:34.657Z,24.10
2019-04-22T18:33:16.111Z,24.00
2019-04-22T18:35:41.454Z,23.90
2019-04-22T18:38:28.052Z,23.80
2019-04-22T18:40:49.218Z,23.80
2019-04-22T18:43:26.229Z,24.10
2019-04-22T18:45:55.041Z,23.90
2019-04-22T18:48:12.731Z,23.80
2019-04-22T18:51:13.221Z,23.80
2019-04-22T18:53:56.943Z,23.80
2019-04-22T18:56:19.534Z,23.70
2019-04-22T18:58:44.914Z,23.60
2019-04-22T19:01:05.938Z,23.60
2019-04-22T19:03:46.802Z,23.50
2019-04-22T19:06:40.085Z,23.40
2019-04-22T19:09:05.276Z,23.30
2019-04-22T19:11:41.020Z,23.10
2019-04-22T19:19:20.639Z,23.00
2019-04-22T19:21:32.447Z,23.00
2019-04-22T19:24:05.992Z,22.90
2019-04-22T19:26:50.034Z,22.90
2019-04-22T19:29:06.874Z,22.70
2019-04-22T19:31:40.758Z,22.80
2019-04-22T19:34:14.370Z,22.80
2019-04-22T19:36:46.904Z,22.70
2019-04-22T19:39:09.125Z,22.50
2019-04-22T19:41:44.180Z,22.50
2019-04-22T19:44:17.618Z,22.40
2019-04-22T19:46:55.239Z,22.40
2019-04-22T19:49:25.375Z,22.40
2019-04-22T19:51:52.647Z,22.30
2019-04-22T19:54:15.784Z,22.30
2019-04-22T19:56:59.004Z,22.20
2019-04-22T19:59:32.228Z,22.10
2019-04-22T20:02:09.581Z,22.00
2019-04-22T20:04:52.918Z,22.00
2019-04-22T20:07:26.284Z,21.90
2019-04-22T20:09:55.504Z,21.80
2019-04-22T20:12:19.957Z,21.70
2019-04-22T20:14:54.461Z,21.70
2019-04-22T20:17:26.820Z,21.70
2019-04-22T20:20:19.610Z,21.80
2019-04-22T20:22:23.346Z,21.70
2019-04-22T20:24:47.168Z,21.60
2019-04-22T20:27:30.112Z,21.60
2019-04-22T20:30:02.490Z,21.60
2019-04-22T20:32:26.539Z,21.50
2019-04-22T20:35:06.042Z,21.50
2019-04-22T20:37:35.475Z,21.40
2019-04-22T20:40:00.253Z,21.40
2019-04-22T20:45:10.215Z,21.10
2019-04-22T20:47:32.217Z,21.00
2019-04-22T20:50:08.004Z,20.80
2019-04-22T20:52:45.110Z,20.70
2019-04-22T20:55:03.396Z,20.70
2019-04-22T20:57:40.460Z,20.70
2019-04-22T21:00:02.102Z,20.80
2019-04-22T21:02:31.281Z,20.80
2019-04-22T21:04:57.079Z,20.80
2019-04-22T21:07:32.458Z,20.70
2019-04-22T21:10:07.677Z,20.70
2019-04-22T21:12:30.342Z,20.70
2019-04-22T21:15:15.907Z,20.50
2019-04-22T21:17:42.641Z,20.60
2019-04-22T21:22:44.262Z,20.40
2019-04-22T21:25:06.186Z,20.30
2019-04-22T21:27:45.631Z,20.20
2019-04-22T21:30:12.442Z,20.20
2019-04-22T21:32:38.612Z,20.30
2019-04-22T21:35:21.779Z,20.30
2019-04-22T21:37:56.851Z,20.20
2019-04-22T21:40:18.202Z,20.10
2019-04-22T21:42:50.106Z,20.10
2019-04-22T21:45:08.026Z,20.10
2019-04-22T21:48:00.932Z,20.20
2019-04-22T21:50:37.847Z,20.10
2019-04-22T21:52:54.544Z,20.10
2019-04-22T21:55:23.841Z,20.00
2019-04-22T21:58:04.876Z,20.00
2019-04-22T22:00:41.206Z,20.10
2019-04-22T22:03:07.205Z,20.10
2019-04-22T22:05:28.922Z,20.10
2019-04-22T22:07:52.207Z,20.10
2019-04-22T22:10:36.449Z,20.30
2019-04-22T22:13:06.634Z,20.30
2019-04-22T22:15:36.278Z,20.30
2019-04-22T22:18:02.287Z,20.30
2019-04-22T22:20:45.316Z,20.10
2019-04-22T22:23:18.087Z,20.10
2019-04-22T22:25:33.521Z,20.10
2019-04-22T22:28:29.440Z,20.00
2019-04-22T22:30:48.067Z,19.80
2019-04-22T22:33:10.729Z,19.80
2019-04-22T22:35:40.499Z,19.90
2019-04-22T22:38:12.010Z,19.70
2019-04-22T22:40:26.121Z,19.80
2019-04-22T22:42:55.121Z,19.70
2019-04-22T22:45:32.818Z,19.70
2019-04-22T22:48:21.677Z,19.70
2019-04-22T22:50:43.207Z,19.70
2019-04-22T22:53:22.368Z,19.70
2019-04-22T22:55:44.339Z,19.70
2019-04-22T22:58:17.657Z,19.70
2019-04-22T23:00:44.124Z,19.60
2019-04-22T23:03:40.268Z,19.20
2019-04-22T23:05:55.408Z,19.60
2019-04-22T23:08:22.730Z,19.60
2019-04-22T23:10:57.430Z,19.70
2019-04-22T23:13:21.477Z,19.60
2019-04-22T23:15:46.645Z,19.40
2019-04-22T23:17:58.513Z,19.40
2019-04-22T23:20:32.466Z,18.90
2019-04-22T23:23:36.169Z,19.20
2019-04-22T23:25:55.053Z,19.30
2019-04-22T23:28:16.971Z,19.30
2019-04-22T23:30:58.003Z,19.30
2019-04-22T23:33:37.866Z,19.30
2019-04-22T23:36:08.724Z,19.30
2019-04-22T23:38:53.479Z,19.10
2019-04-22T23:41:41.604Z,19.00
2019-04-22T23:44:11.453Z,18.60
2019-04-22T23:46:38.475Z,18.40
2019-04-22T23:49:08.768Z,18.20
2019-04-22T23:51:39.672Z,18.10
2019-04-22T23:54:13.011Z,18.00
2019-04-22T23:56:39.723Z,18.30
2019-04-22T23:59:25.564Z,18.20
